Cherokee — WDA6285 — position and weather

sailwx.info

Track history (hours):
 
Tides and Currents Weather Stations Pressure Air Temp Water Temp Dewpoint Dewpoint Depression Visibility Wind Speed Wind Dir Waves Ship Positions

Cherokee

Owner: Koontz, John D, Santa Barbara, CA. More information available from US FCC via Universal Licensing System and Coast Guard Vessel Documentation Center.

Last reported at 2017-Sep-17 23:56 UTC. Time now 2017-Nov-21 00:53 UTC.
Position N 34°24' W 119°41'.
Warning: this ship's position is months out of date.

Length 14 m.

Type: Pleasure craft. MMSI: 366830720.

Date/timePositionNaut miles runAvg speedWind from/ knotsBaromVisibWave heightAir tempDewpointWater temp
2017-Sep-17 23:56N 34°24' W 119°41'2 4.2
2017-Sep-17 23:24N 34°22' W 119°41'3 6.8
2017-Sep-17 22:54N 34°19' W 119°41'3 6.8
2017-Sep-17 22:28N 34°16' W 119°41'3 7.0
2017-Sep-17 22:00N 34°13' W 119°42'4 6.7
2017-Sep-17 21:26N 34°09' W 119°42'3 6.6
2017-Sep-17 20:59N 34°06' W 119°42'4 0.2
2017-Sep-17 00:05N 34°02' W 119°42'0 0.0
2017-Sep-16 23:56N 34°02' W 119°42'0 0.0
2017-Sep-16 23:26N 34°02' W 119°42'0 0.0
2017-Sep-16 22:11N 34°02' W 119°42'0 0.0
2017-Sep-16 19:07N 34°02' W 119°42'0 0.2
2017-Sep-16 19:00N 34°02' W 119°42'3 5.1
2017-Sep-16 18:29N 34°05' W 119°42'4 7.7
2017-Sep-16 18:00N 34°08' W 119°42'5 7.3
2017-Sep-16 17:20N 34°13' W 119°42'3 6.9
2017-Sep-16 16:50N 34°17' W 119°41'3 6.8
2017-Sep-16 16:28N 34°19' W 119°41'  
2017-Sep-08 02:09N 34°24' W 119°41'0 0.0
2017-Sep-08 01:57N 34°24' W 119°41'  
Track history (hours):
 
Tides and Currents Weather Stations Pressure Air Temp Water Temp Dewpoint Dewpoint Depression Visibility Wind Speed Wind Dir Waves Ship Positions

Cherokee

Owner: Koontz, John D, Santa Barbara, CA. More information available from US FCC via Universal Licensing System and Coast Guard Vessel Documentation Center.

Last reported at 2017-Sep-17 23:56 UTC. Time now 2017-Nov-21 00:53 UTC.
Position N 34°24' W 119°41'.
Warning: this ship's position is months out of date.

Length 14 m.

Type: Pleasure craft. MMSI: 366830720.

Date/timePositionNaut miles runAvg speedWind from/ knotsBaromVisibWave heightAir tempDewpointWater temp
2017-Sep-17 23:56N 34°24' W 119°41'2 4.2
2017-Sep-17 23:24N 34°22' W 119°41'3 6.8
2017-Sep-17 22:54N 34°19' W 119°41'3 6.8
2017-Sep-17 22:28N 34°16' W 119°41'3 7.0
2017-Sep-17 22:00N 34°13' W 119°42'4 6.7
2017-Sep-17 21:26N 34°09' W 119°42'3 6.6
2017-Sep-17 20:59N 34°06' W 119°42'4 0.2
2017-Sep-17 00:05N 34°02' W 119°42'0 0.0
2017-Sep-16 23:56N 34°02' W 119°42'0 0.0
2017-Sep-16 23:26N 34°02' W 119°42'0 0.0
2017-Sep-16 22:11N 34°02' W 119°42'0 0.0
2017-Sep-16 19:07N 34°02' W 119°42'0 0.2
2017-Sep-16 19:00N 34°02' W 119°42'3 5.1
2017-Sep-16 18:29N 34°05' W 119°42'4 7.7
2017-Sep-16 18:00N 34°08' W 119°42'5 7.3
2017-Sep-16 17:20N 34°13' W 119°42'3 6.9
2017-Sep-16 16:50N 34°17' W 119°41'3 6.8
2017-Sep-16 16:28N 34°19' W 119°41'  
2017-Sep-08 02:09N 34°24' W 119°41'0 0.0
2017-Sep-08 01:57N 34°24' W 119°41'  

Dump ship's entire track history